Time;durP1;ratioP1;P1;durP2;ratioP2;P2;SDS_P1;SDS_P2;PMS_P1;PMS_P2;Temp;Humidity;BMP_temperature;BMP_pressure;BME280_temperature;BME280_humidity;BME280_pressure;Samples;Min_cycle;Max_cycle;Signal;HPM_P1;HPM_P2
2023/01/04 00:01:13;;;;;;;4.82;2.40;;;3.10;97.60;;;;;;5037796;28;20256;-67
2023/01/04 00:03:39;;;;;;;4.20;2.17;;;3.00;97.80;;;;;;5037886;28;20092;-67
2023/01/04 00:06:06;;;;;;;5.07;2.50;;;3.00;98.00;;;;;;5032171;28;20610;-67
2023/01/04 00:08:33;;;;;;;4.22;2.70;;;2.90;98.00;;;;;;5037882;28;20065;-68
2023/01/04 00:11:05;;;;;;;4.45;2.70;;;2.60;98.00;;;;;;5035296;28;20060;-67
2023/01/04 00:13:31;;;;;;;4.13;2.17;;;2.30;98.00;;;;;;5036551;28;20334;-66
2023/01/04 00:15:58;;;;;;;4.85;2.40;;;2.10;94.10;;;;;;5033740;28;20055;-66
2023/01/04 00:18:23;;;;;;;5.40;2.33;;;2.30;94.90;;;;;;5032625;28;20022;-68
2023/01/04 00:20:49;;;;;;;4.18;2.40;;;2.30;94.40;;;;;;5036914;28;20048;-67
2023/01/04 00:23:14;;;;;;;5.10;2.60;;;2.30;94.50;;;;;;5033202;28;20076;-67
2023/01/04 00:25:40;;;;;;;5.03;2.22;;;2.30;94.80;;;;;;5036161;28;20056;-67
2023/01/04 00:28:06;;;;;;;6.47;2.75;;;2.30;94.30;;;;;;5037325;28;20033;-67
2023/01/04 00:30:42;;;;;;;4.55;2.30;;;2.30;95.50;;;;;;5048558;28;20022;-66
2023/01/04 00:33:15;;;;;;;5.85;2.70;;;2.20;95.40;;;;;;5032034;28;20018;-66
2023/01/04 00:35:53;;;;;;;3.90;2.40;;;2.10;94.70;;;;;;5032935;28;20029;-66
2023/01/04 00:38:24;;;;;;;5.95;3.03;;;2.00;94.40;;;;;;5041837;28;20429;-66
2023/01/04 00:40:50;;;;;;;6.07;2.90;;;1.90;94.30;;;;;;5039117;28;20033;-66
2023/01/04 00:43:16;;;;;;;6.15;3.33;;;1.80;93.90;;;;;;5038152;28;20534;-66
2023/01/04 00:45:42;;;;;;;5.05;2.95;;;1.70;93.90;;;;;;5026993;28;20129;-66
2023/01/04 00:48:08;;;;;;;7.65;3.13;;;1.60;93.10;;;;;;5032173;28;20021;-66
2023/01/04 00:50:34;;;;;;;5.15;2.92;;;1.50;92.20;;;;;;5056666;28;20028;-66
2023/01/04 00:53:00;;;;;;;5.40;2.35;;;1.40;92.40;;;;;;5055091;28;20021;-65
2023/01/04 00:55:25;;;;;;;4.72;2.65;;;1.40;90.10;;;;;;5039726;28;20326;-66
2023/01/04 00:57:51;;;;;;;4.60;2.58;;;1.50;91.30;;;;;;5037057;28;20025;-66
2023/01/04 01:00:17;;;;;;;4.28;2.40;;;1.50;90.70;;;;;;5036173;28;20034;-66
2023/01/04 01:02:43;;;;;;;3.28;2.10;;;1.50;90.90;;;;;;5029982;28;20052;-65
2023/01/04 01:05:09;;;;;;;4.88;2.20;;;1.70;89.40;;;;;;5026343;28;20076;-66
2023/01/04 01:07:34;;;;;;;3.55;1.92;;;1.90;93.00;;;;;;5038853;28;20061;-66
2023/01/04 01:10:00;;;;;;;3.50;1.90;;;2.00;92.20;;;;;;5036419;28;20315;-67
2023/01/04 01:12:26;;;;;;;4.82;1.80;;;2.20;94.00;;;;;;5035487;28;20369;-67
2023/01/04 01:14:51;;;;;;;5.78;2.10;;;2.40;95.00;;;;;;5035621;28;20017;-66
2023/01/04 01:17:17;;;;;;;3.28;1.80;;;2.60;96.30;;;;;;5037684;28;20323;-67
2023/01/04 01:19:43;;;;;;;4.50;1.98;;;2.80;97.90;;;;;;5029313;28;20036;-67
2023/01/04 01:22:09;;;;;;;3.60;1.70;;;3.00;98.00;;;;;;5028627;28;20024;-67
2023/01/04 01:24:35;;;;;;;3.22;1.90;;;3.20;98.00;;;;;;5026619;28;20037;-66
2023/01/04 01:27:00;;;;;;;3.85;1.88;;;3.30;98.00;;;;;;5035136;28;20101;-67
2023/01/04 01:29:26;;;;;;;4.07;1.90;;;3.50;98.00;;;;;;5035277;28;20304;-66
2023/01/04 01:31:53;;;;;;;4.68;1.95;;;3.70;98.00;;;;;;5027965;28;20021;-67
2023/01/04 01:34:19;;;;;;;3.38;1.58;;;3.60;98.00;;;;;;5034584;28;20036;-67
2023/01/04 01:36:45;;;;;;;3.10;1.52;;;3.60;98.00;;;;;;5036422;28;20055;-67
2023/01/04 01:39:11;;;;;;;4.15;1.77;;;3.70;98.00;;;;;;5035745;28;20041;-67
2023/01/04 01:41:37;;;;;;;3.42;1.80;;;3.90;98.00;;;;;;5036964;28;20415;-67
2023/01/04 01:44:41;;;;;;;5.70;1.63;;;3.90;98.00;;;;;;5036180;28;20063;-67
2023/01/04 01:47:13;;;;;;;2.83;1.60;;;4.00;98.00;;;;;;5034516;28;20477;-67
2023/01/04 01:49:41;;;;;;;5.63;1.75;;;4.10;98.00;;;;;;5036076;28;20033;-67
2023/01/04 01:52:13;;;;;;;5.03;2.17;;;4.10;98.00;;;;;;5031326;28;20319;-68
2023/01/04 01:54:43;;;;;;;4.20;1.70;;;4.10;98.00;;;;;;5034990;28;20018;-68
2023/01/04 01:57:15;;;;;;;5.32;1.75;;;4.00;98.00;;;;;;5035331;28;20163;-67
2023/01/04 01:59:45;;;;;;;5.30;1.80;;;4.10;98.00;;;;;;5035473;28;20112;-67
2023/01/04 02:02:11;;;;;;;3.60;1.60;;;4.00;98.00;;;;;;5018545;28;20022;-68
2023/01/04 02:04:42;;;;;;;3.70;1.60;;;4.00;98.00;;;;;;5035543;28;20044;-68
2023/01/04 02:07:09;;;;;;;3.72;1.67;;;3.80;98.00;;;;;;5033035;28;20018;-67
2023/01/04 02:09:36;;;;;;;3.63;1.70;;;3.80;98.00;;;;;;5034799;28;20033;-67
2023/01/04 02:12:01;;;;;;;3.72;1.50;;;3.80;98.00;;;;;;5032809;28;20025;-67
2023/01/04 02:14:28;;;;;;;2.97;1.60;;;3.70;98.00;;;;;;5033640;28;20026;-68
2023/01/04 02:17:33;;;;;;;2.78;1.55;;;3.80;98.00;;;;;;5031968;28;20022;-67
2023/01/04 02:20:14;;;;;;;3.63;1.70;;;3.80;98.00;;;;;;5033823;28;20287;-67
2023/01/04 02:23:14;;;;;;;2.45;1.50;;;3.80;98.00;;;;;;5026863;28;20100;-67
2023/01/04 02:26:01;;;;;;;4.72;1.60;;;3.90;98.00;;;;;;5033973;28;20051;-67
2023/01/04 02:28:33;;;;;;;3.60;1.65;;;4.20;98.00;;;;;;5029641;28;20033;-66
2023/01/04 02:31:08;;;;;;;2.22;1.35;;;4.10;98.00;;;;;;5034288;28;20029;-66
2023/01/04 02:33:36;;;;;;;3.60;1.42;;;4.00;98.00;;;;;;5034128;28;20026;-67
2023/01/04 02:36:23;;;;;;;2.53;1.48;;;3.80;98.00;;;;;;5033290;28;20053;-67
2023/01/04 02:39:00;;;;;;;4.55;1.60;;;3.70;98.00;;;;;;5030844;28;20163;-66
2023/01/04 02:41:38;;;;;;;3.60;1.40;;;3.70;98.00;;;;;;5022620;28;20322;-67
2023/01/04 02:47:09;;;;;;;3.85;1.38;;;3.70;98.00;;;;;;5033268;28;20066;-67
2023/01/04 02:52:20;;;;;;;;;;;3.40;98.00;;;;;;5031821;28;20041;-67
2023/01/04 02:54:48;;;;;;;2.67;1.50;;;3.30;98.00;;;;;;5034143;28;19963;-66
2023/01/04 02:57:29;;;;;;;3.22;1.40;;;3.10;98.00;;;;;;5034058;28;20021;-66
2023/01/04 03:00:13;;;;;;;4.55;1.70;;;3.10;98.00;;;;;;5032785;28;20124;-67
2023/01/04 03:06:16;;;;;;;2.55;1.55;;;2.90;98.00;;;;;;5030073;28;20045;-66
2023/01/04 03:08:53;;;;;;;3.10;1.60;;;2.90;98.00;;;;;;5030612;28;20057;-66
2023/01/04 03:14:14;;;;;;;3.33;1.63;;;2.90;98.00;;;;;;5031286;28;20323;-67
2023/01/04 03:16:43;;;;;;;3.13;1.60;;;2.90;98.00;;;;;;5032935;28;20105;-67
2023/01/04 03:19:11;;;;;;;4.68;1.65;;;3.00;98.00;;;;;;5033004;28;20032;-66
2023/01/04 03:21:43;;;;;;;3.45;1.60;;;3.00;98.00;;;;;;5031372;28;20078;-67
2023/01/04 03:35:21;;;;;;;3.55;1.50;;;3.10;98.00;;;;;;5032327;28;20116;-66
2023/01/04 03:36:11;;;;;;;2.85;1.60;;;3.40;98.00;;;;;;5032221;28;20044;-67
2023/01/04 03:50:44;;;;;;;2.63;1.20;;;3.90;97.30;;;;;;5024661;28;20086;-66
2023/01/04 03:53:11;;;;;;;3.25;1.40;;;3.80;97.30;;;;;;5054423;28;20376;-66
2023/01/04 03:55:40;;;;;;;3.40;1.52;;;3.80;97.40;;;;;;5042077;28;20033;-66
2023/01/04 03:58:06;;;;;;;2.90;1.45;;;3.90;97.00;;;;;;5034420;28;20029;-65
2023/01/04 04:00:33;;;;;;;1.88;1.10;;;3.80;97.30;;;;;;5033205;28;20026;-65
2023/01/04 04:03:06;;;;;;;2.95;1.27;;;4.10;94.80;;;;;;5034827;28;20053;-66
2023/01/04 04:08:28;;;;;;;2.30;1.10;;;4.20;94.60;;;;;;5034998;28;20040;-67
2023/01/04 04:11:28;;;;;;;2.78;1.30;;;4.20;95.40;;;;;;5037299;28;20472;-67
2023/01/04 04:13:43;;;;;;;2.38;1.27;;;4.10;95.80;;;;;;5034936;28;20049;-66
2023/01/04 04:16:09;;;;;;;2.15;1.20;;;4.00;95.70;;;;;;5042936;28;20076;-67
2023/01/04 04:18:34;;;;;;;2.28;1.35;;;4.00;95.20;;;;;;5037463;28;20029;-67
2023/01/04 04:21:00;;;;;;;2.35;1.10;;;4.10;94.90;;;;;;5035551;28;20021;-66
2023/01/04 04:23:26;;;;;;;2.03;1.10;;;4.30;94.20;;;;;;5036954;28;20029;-66
2023/01/04 04:25:51;;;;;;;3.00;1.27;;;4.40;93.70;;;;;;5040903;28;20052;-66
2023/01/04 04:28:17;;;;;;;1.60;1.08;;;4.50;94.00;;;;;;5034709;28;20034;-66
2023/01/04 04:30:43;;;;;;;2.28;1.20;;;4.70;93.00;;;;;;5036222;28;20097;-67
2023/01/04 04:33:08;;;;;;;2.13;1.20;;;4.80;93.40;;;;;;5037471;28;20046;-65
2023/01/04 04:35:34;;;;;;;2.42;1.20;;;4.70;94.00;;;;;;5024694;28;20086;-66
2023/01/04 04:38:00;;;;;;;2.38;1.20;;;4.60;94.50;;;;;;5038009;28;20410;-66
2023/01/04 04:43:13;;;;;;;3.10;1.20;;;4.60;94.20;;;;;;5034955;28;20064;-67
2023/01/04 04:45:39;;;;;;;2.55;1.20;;;4.70;93.90;;;;;;5035091;28;20038;-66
2023/01/04 04:48:07;;;;;;;1.98;1.10;;;4.70;93.70;;;;;;5036477;28;20030;-66
2023/01/04 04:50:33;;;;;;;3.78;1.40;;;4.80;93.50;;;;;;5034141;28;20033;-66
2023/01/04 04:52:58;;;;;;;1.88;1.10;;;4.90;93.20;;;;;;5037475;28;20026;-66
2023/01/04 04:55:24;;;;;;;2.05;1.05;;;4.90;92.70;;;;;;5036401;28;20032;-67
2023/01/04 04:57:50;;;;;;;1.95;1.02;;;5.00;92.40;;;;;;5036162;28;20041;-67
2023/01/04 05:00:16;;;;;;;2.85;1.23;;;5.10;91.80;;;;;;5035666;28;20037;-66
2023/01/04 05:02:42;;;;;;;2.67;1.60;;;5.30;90.90;;;;;;5036951;28;20033;-66
2023/01/04 05:05:08;;;;;;;1.90;1.13;;;5.40;90.80;;;;;;5034033;28;20021;-66
2023/01/04 05:07:34;;;;;;;17.50;9.75;;;5.70;88.50;;;;;;5035276;28;20449;-66
2023/01/04 05:09:59;;;;;;;6.43;3.05;;;5.90;88.20;;;;;;5033174;28;20064;-67
2023/01/04 05:15:09;;;;;;;;;;;5.90;88.50;;;;;;5035566;28;20040;-67
2023/01/04 05:17:34;;;;;;;1.88;1.10;;;5.80;89.10;;;;;;5036303;28;19909;-67
2023/01/04 05:20:01;;;;;;;1.88;1.08;;;5.70;89.10;;;;;;5036072;28;20079;-66
2023/01/04 05:22:27;;;;;;;2.67;1.00;;;5.70;89.30;;;;;;5032901;28;20037;-66
2023/01/04 05:24:52;;;;;;;2.40;1.23;;;5.80;89.60;;;;;;5034546;28;20034;-67
2023/01/04 05:27:18;;;;;;;1.98;1.00;;;5.80;89.60;;;;;;5035267;28;20018;-66
2023/01/04 05:32:27;;;;;;;;;;;6.20;88.90;;;;;;5023950;28;20169;-67
2023/01/04 05:34:53;;;;;;;2.72;1.13;;;6.10;89.00;;;;;;5033027;28;19959;-67
2023/01/04 05:37:19;;;;;;;2.50;1.10;;;6.20;87.80;;;;;;5035400;28;20029;-66
2023/01/04 05:39:44;;;;;;;3.50;1.10;;;6.40;86.20;;;;;;5036402;28;20033;-67
2023/01/04 05:42:25;;;;;;;3.65;1.08;;;6.60;85.70;;;;;;5036290;28;20044;-66
2023/01/04 05:44:59;;;;;;;2.97;1.30;;;6.60;85.90;;;;;;5036044;28;20033;-67
2023/01/04 05:47:26;;;;;;;2.53;1.00;;;6.60;85.80;;;;;;5035365;28;20034;-67
2023/01/04 05:49:52;;;;;;;6.82;3.15;;;6.60;85.60;;;;;;5036176;28;20093;-67
2023/01/04 05:52:19;;;;;;;6.07;3.35;;;6.60;85.40;;;;;;5035461;28;20101;-67
2023/01/04 05:54:45;;;;;;;2.38;0.90;;;6.50;85.80;;;;;;5034149;28;20021;-67
2023/01/04 05:57:12;;;;;;;6.78;3.17;;;6.60;84.60;;;;;;5033766;28;20315;-67
2023/01/04 05:59:37;;;;;;;6.95;3.97;;;6.70;84.40;;;;;;5036062;28;20425;-67
2023/01/04 06:02:04;;;;;;;8.98;5.20;;;6.70;85.00;;;;;;5033875;28;20025;-67
2023/01/04 06:04:30;;;;;;;2.75;1.30;;;6.70;84.80;;;;;;5020963;28;20037;-67
2023/01/04 06:06:56;;;;;;;2.75;1.30;;;6.70;84.40;;;;;;5031841;28;20025;-67
2023/01/04 06:09:23;;;;;;;1.98;0.90;;;6.70;84.80;;;;;;5033088;28;20449;-67
2023/01/04 06:11:49;;;;;;;3.05;1.17;;;6.80;83.10;;;;;;5033841;28;20310;-66
2023/01/04 06:14:15;;;;;;;2.70;1.00;;;6.80;83.80;;;;;;5035375;28;20021;-67
2023/01/04 06:16:43;;;;;;;1.27;0.88;;;6.70;84.40;;;;;;5033642;28;20021;-67
2023/01/04 06:19:09;;;;;;;2.03;0.85;;;6.60;84.50;;;;;;5034668;28;20112;-67
2023/01/04 06:21:34;;;;;;;1.80;0.90;;;6.70;84.20;;;;;;5032564;28;20100;-67
2023/01/04 06:24:00;;;;;;;2.70;1.00;;;6.60;84.00;;;;;;5034244;28;20029;-67
2023/01/04 06:26:25;;;;;;;1.98;1.00;;;6.60;84.40;;;;;;5035249;28;20033;-67
2023/01/04 06:28:51;;;;;;;2.10;0.88;;;6.70;83.40;;;;;;5034527;28;20033;-67
2023/01/04 06:31:16;;;;;;;2.17;0.90;;;6.80;83.10;;;;;;5031753;28;20036;-67
2023/01/04 06:33:42;;;;;;;1.17;0.90;;;6.90;82.00;;;;;;5033415;28;20170;-67
2023/01/04 06:36:07;;;;;;;2.42;0.90;;;7.00;81.60;;;;;;5029015;28;20021;-67
2023/01/04 06:38:33;;;;;;;2.90;0.90;;;7.10;81.20;;;;;;5032298;28;20033;-68
2023/01/04 06:40:59;;;;;;;1.17;0.82;;;7.20;80.30;;;;;;5033161;28;20037;-67
2023/01/04 06:43:24;;;;;;;2.83;1.15;;;7.30;80.20;;;;;;5034792;28;20033;-67
2023/01/04 06:45:50;;;;;;;2.38;0.73;;;7.30;80.30;;;;;;5033180;28;20057;-66
2023/01/04 06:48:16;;;;;;;1.35;0.73;;;7.30;80.40;;;;;;5033586;28;20037;-67
2023/01/04 06:50:42;;;;;;;3.85;1.08;;;7.30;79.80;;;;;;5034649;28;21522;-67
2023/01/04 06:53:08;;;;;;;2.67;0.80;;;7.40;80.20;;;;;;5034042;28;20048;-66
2023/01/04 06:55:33;;;;;;;2.92;1.13;;;7.30;80.20;;;;;;5034161;28;20045;-66
2023/01/04 06:57:59;;;;;;;1.77;0.80;;;7.30;79.90;;;;;;5030950;28;20046;-67
2023/01/04 07:00:25;;;;;;;1.77;1.00;;;7.40;79.50;;;;;;5032247;28;20033;-68
2023/01/04 07:02:50;;;;;;;2.13;0.88;;;7.30;79.90;;;;;;5029326;28;20056;-68
2023/01/04 07:05:19;;;;;;;3.58;1.00;;;7.40;79.20;;;;;;5032193;28;20025;-67
2023/01/04 07:07:44;;;;;;;1.63;0.73;;;7.50;78.40;;;;;;5032031;28;20292;-67
2023/01/04 07:10:10;;;;;;;1.13;0.80;;;7.60;78.40;;;;;;5029203;28;20103;-67
2023/01/04 07:12:37;;;;;;;2.72;0.90;;;7.60;78.00;;;;;;5034461;28;20025;-68
2023/01/04 07:15:03;;;;;;;4.97;0.80;;;7.60;78.70;;;;;;5033706;28;20053;-67
2023/01/04 07:17:28;;;;;;;2.05;0.80;;;7.60;78.10;;;;;;5034259;28;20053;-67
2023/01/04 07:19:54;;;;;;;2.35;0.80;;;7.80;77.00;;;;;;5032093;28;20033;-67
2023/01/04 07:22:19;;;;;;;1.65;0.80;;;7.90;76.00;;;;;;5033049;28;20021;-67
2023/01/04 07:24:45;;;;;;;1.95;0.90;;;7.90;76.40;;;;;;5033764;28;20461;-68
2023/01/04 07:27:11;;;;;;;2.22;0.90;;;7.90;76.70;;;;;;5025389;28;20057;-67
2023/01/04 07:29:37;;;;;;;2.95;0.73;;;7.80;76.60;;;;;;5023077;28;20034;-67
2023/01/04 07:32:03;;;;;;;2.20;0.90;;;7.90;76.30;;;;;;5028452;28;20036;-67
2023/01/04 07:34:30;;;;;;;1.48;0.85;;;7.90;76.40;;;;;;5031183;28;20086;-67
2023/01/04 07:36:55;;;;;;;4.00;0.80;;;7.80;76.50;;;;;;5030626;28;20024;-67
2023/01/04 07:39:21;;;;;;;2.88;0.90;;;7.80;76.80;;;;;;5027077;28;20029;-68
2023/01/04 07:41:48;;;;;;;1.98;0.80;;;7.90;75.70;;;;;;5016181;28;20457;-67
2023/01/04 07:44:14;;;;;;;2.42;1.08;;;7.90;75.40;;;;;;5031136;28;20033;-67
2023/01/04 07:46:41;;;;;;;3.72;1.05;;;7.90;75.80;;;;;;5037176;28;20033;-67
2023/01/04 07:49:12;;;;;;;2.72;0.80;;;7.90;75.60;;;;;;5036058;28;20021;-67
2023/01/04 07:51:37;;;;;;;2.30;0.90;;;8.00;75.00;;;;;;5037436;28;20379;-67
2023/01/04 07:54:03;;;;;;;2.75;0.90;;;8.00;75.10;;;;;;5038182;28;20049;-67
2023/01/04 07:56:28;;;;;;;3.20;1.10;;;8.00;75.50;;;;;;5039153;28;20033;-67
2023/01/04 07:58:56;;;;;;;4.75;1.80;;;8.10;75.60;;;;;;5036791;28;20025;-66
2023/01/04 08:01:23;;;;;;;2.08;1.00;;;8.10;75.70;;;;;;5035148;28;20112;-67
2023/01/04 08:03:48;;;;;;;1.98;1.02;;;8.10;75.20;;;;;;5033022;28;20294;-67
2023/01/04 08:06:15;;;;;;;0.80;0.70;;;8.20;74.00;;;;;;5036362;28;20041;-67
2023/01/04 08:08:41;;;;;;;1.30;0.80;;;8.20;73.50;;;;;;5037366;28;20036;-67
2023/01/04 08:11:10;;;;;;;2.50;0.80;;;8.20;74.00;;;;;;5035945;28;20022;-67
2023/01/04 08:13:36;;;;;;;2.05;0.90;;;8.30;73.60;;;;;;5034444;28;20024;-67
2023/01/04 08:16:03;;;;;;;3.05;0.90;;;8.30;73.90;;;;;;5034279;28;20033;-66
2023/01/04 08:18:28;;;;;;;1.80;0.77;;;8.30;74.20;;;;;;5036038;28;20038;-67
2023/01/04 08:21:07;;;;;;;2.03;0.90;;;8.20;74.70;;;;;;5034765;28;20030;-68
2023/01/04 08:23:34;;;;;;;3.35;1.00;;;8.10;75.90;;;;;;5033997;28;20029;-67
2023/01/04 08:26:03;;;;;;;3.13;0.90;;;8.10;75.90;;;;;;5036399;28;20050;-67
2023/01/04 08:28:29;;;;;;;2.63;0.80;;;8.00;77.30;;;;;;5033604;28;20057;-67
2023/01/04 08:30:54;;;;;;;3.20;0.80;;;7.90;78.60;;;;;;5033860;28;20033;-67
2023/01/04 08:33:20;;;;;;;1.52;0.93;;;7.80;80.00;;;;;;5033038;28;20033;-67
2023/01/04 08:35:45;;;;;;;1.30;0.80;;;7.80;81.10;;;;;;5032380;28;20492;-67
2023/01/04 08:38:11;;;;;;;1.25;0.70;;;7.80;82.00;;;;;;5036038;28;20037;-67
2023/01/04 08:40:37;;;;;;;2.53;0.85;;;7.70;82.50;;;;;;5034441;28;20025;-66
2023/01/04 08:43:02;;;;;;;2.40;0.90;;;7.70;83.00;;;;;;5030414;28;20037;-68
2023/01/04 08:45:28;;;;;;;2.97;0.70;;;7.70;83.50;;;;;;5029228;28;21374;-67
2023/01/04 08:47:54;;;;;;;2.42;0.80;;;7.80;83.80;;;;;;5033138;28;20052;-67
2023/01/04 08:50:20;;;;;;;2.40;1.00;;;7.90;82.60;;;;;;5033484;28;20423;-67
2023/01/04 08:52:48;;;;;;;1.67;0.70;;;8.10;82.20;;;;;;5034706;28;20021;-66
2023/01/04 08:55:15;;;;;;;2.03;0.70;;;8.10;82.20;;;;;;5033235;28;20560;-65
2023/01/04 08:57:41;;;;;;;2.45;0.80;;;8.10;82.60;;;;;;5031814;28;20389;-65
2023/01/04 09:00:10;;;;;;;1.45;0.88;;;8.10;82.00;;;;;;5029432;28;20125;-64
2023/01/04 09:02:35;;;;;;;1.52;0.80;;;8.20;82.00;;;;;;5020367;28;20037;-67
2023/01/04 09:05:02;;;;;;;1.77;0.90;;;8.30;81.20;;;;;;5026498;28;20323;-65
2023/01/04 09:07:29;;;;;;;1.23;0.70;;;8.30;81.70;;;;;;5028440;28;20014;-66
2023/01/04 09:09:56;;;;;;;0.80;0.60;;;8.40;81.30;;;;;;5033465;28;20044;-66
2023/01/04 09:12:22;;;;;;;1.42;0.80;;;8.60;81.90;;;;;;5031128;28;20039;-67
2023/01/04 09:14:47;;;;;;;0.77;0.60;;;8.60;82.00;;;;;;5030699;28;20021;-67
2023/01/04 09:17:13;;;;;;;1.40;0.80;;;8.60;81.70;;;;;;5029534;28;20108;-66
2023/01/04 09:19:39;;;;;;;0.95;0.70;;;8.60;81.30;;;;;;5030524;28;20022;-66
2023/01/04 09:22:04;;;;;;;2.20;0.90;;;8.60;80.60;;;;;;5029046;28;20108;-66
2023/01/04 09:24:32;;;;;;;2.15;0.80;;;8.60;81.50;;;;;;5032186;28;20057;-66
2023/01/04 09:26:58;;;;;;;1.17;0.60;;;8.60;81.50;;;;;;5032590;28;20402;-66
2023/01/04 09:29:27;;;;;;;5.30;0.90;;;8.60;81.60;;;;;;5031958;28;20036;-66
2023/01/04 09:31:53;;;;;;;2.22;0.70;;;8.70;82.20;;;;;;5026691;28;20044;-67
2023/01/04 09:34:19;;;;;;;2.45;0.75;;;8.70;82.60;;;;;;5033744;28;20021;-67
2023/01/04 09:36:46;;;;;;;1.50;0.70;;;8.80;83.30;;;;;;5030995;28;20051;-66
2023/01/04 09:39:13;;;;;;;1.30;0.80;;;8.90;83.40;;;;;;5033939;28;20231;-66
2023/01/04 09:41:48;;;;;;;1.42;0.80;;;8.90;83.80;;;;;;5034876;28;20032;-66
2023/01/04 09:44:42;;;;;;;1.00;0.68;;;8.90;84.10;;;;;;5029967;28;20425;-65
2023/01/04 09:47:16;;;;;;;2.08;0.70;;;9.00;84.50;;;;;;5031625;28;20045;-66
2023/01/04 09:49:51;;;;;;;4.22;0.80;;;9.00;84.80;;;;;;5035669;28;20042;-65
2023/01/04 09:52:22;;;;;;;0.80;0.60;;;9.10;85.60;;;;;;5035713;28;20146;-65
2023/01/04 09:54:54;;;;;;;2.45;0.70;;;9.20;85.30;;;;;;5035706;28;20029;-67
2023/01/04 09:57:39;;;;;;;1.40;0.70;;;9.20;85.20;;;;;;5033794;28;20053;-67
2023/01/04 10:00:15;;;;;;;2.08;0.80;;;9.30;85.70;;;;;;5035043;28;20437;-67
2023/01/04 10:03:09;;;;;;;2.13;0.75;;;9.30;85.70;;;;;;5036613;28;20026;-66
2023/01/04 10:05:35;;;;;;;2.63;1.00;;;9.40;85.90;;;;;;5034809;28;20418;-66
2023/01/04 10:08:02;;;;;;;1.30;0.70;;;9.40;85.90;;;;;;5035260;28;20041;-67
2023/01/04 10:10:47;;;;;;;1.55;0.80;;;9.40;86.50;;;;;;5036055;28;20468;-66
2023/01/04 10:13:32;;;;;;;1.00;0.70;;;9.50;86.50;;;;;;5024844;28;20335;-66
2023/01/04 10:16:26;;;;;;;1.55;0.77;;;9.50;86.30;;;;;;5033066;28;20025;-66
2023/01/04 10:19:04;;;;;;;2.28;0.95;;;9.60;86.80;;;;;;5013791;28;20323;-65
2023/01/04 10:21:41;;;;;;;1.92;0.90;;;9.50;87.00;;;;;;5027834;28;20021;-67
2023/01/04 10:24:27;;;;;;;2.28;0.80;;;9.40;87.40;;;;;;5033290;28;20037;-65
2023/01/04 10:27:04;;;;;;;4.13;1.67;;;9.50;88.20;;;;;;5029291;28;20079;-66
2023/01/04 10:29:49;;;;;;;0.90;0.63;;;9.50;88.60;;;;;;5030046;28;20079;-66
2023/01/04 10:32:32;;;;;;;1.73;0.73;;;9.50;88.50;;;;;;5032563;28;20354;-66
2023/01/04 10:34:58;;;;;;;1.50;0.70;;;9.60;88.40;;;;;;5032667;28;20109;-65
2023/01/04 10:37:29;;;;;;;1.73;0.80;;;9.60;88.30;;;;;;5030620;28;20104;-66
2023/01/04 10:39:56;;;;;;;1.13;0.70;;;9.50;88.20;;;;;;5030298;28;20029;-67
2023/01/04 10:42:43;;;;;;;1.70;0.77;;;9.50;88.60;;;;;;5030963;28;20025;-65
2023/01/04 10:45:30;;;;;;;6.35;1.38;;;9.60;88.70;;;;;;5031253;28;20094;-66
2023/01/04 10:48:34;;;;;;;1.42;0.60;;;9.50;89.00;;;;;;5032168;28;20037;-66
2023/01/04 10:51:01;;;;;;;0.73;0.63;;;9.50;89.40;;;;;;5009838;28;20338;-66
2023/01/04 10:53:39;;;;;;;0.85;0.70;;;9.50;89.70;;;;;;5031123;28;20052;-65
2023/01/04 10:56:14;;;;;;;1.95;0.73;;;9.60;90.60;;;;;;5031907;28;20074;-66
2023/01/04 10:58:57;;;;;;;1.90;1.00;;;9.60;90.50;;;;;;5030288;28;20021;-66
2023/01/04 11:01:43;;;;;;;1.13;0.68;;;9.60;91.10;;;;;;5032130;28;20029;-65
2023/01/04 11:04:20;;;;;;;1.60;0.70;;;9.70;90.90;;;;;;5018887;28;20427;-66
2023/01/04 11:07:05;;;;;;;2.00;0.80;;;9.90;92.90;;;;;;5026253;28;20025;-65
2023/01/04 11:09:46;;;;;;;2.53;0.73;;;10.00;92.60;;;;;;5026887;28;20331;-66
2023/01/04 11:12:18;;;;;;;1.55;0.80;;;10.00;92.00;;;;;;5031691;28;20032;-66
2023/01/04 11:14:44;;;;;;;1.38;0.70;;;10.00;92.00;;;;;;5032666;28;20029;-67
2023/01/04 11:17:11;;;;;;;1.48;0.70;;;9.90;92.00;;;;;;5029866;28;20034;-66
2023/01/04 11:19:37;;;;;;;1.05;0.70;;;9.90;92.10;;;;;;5034006;28;20029;-66
2023/01/04 11:22:16;;;;;;;2.35;0.95;;;9.90;92.30;;;;;;5018856;28;20531;-65
2023/01/04 11:24:44;;;;;;;3.95;0.90;;;9.90;92.50;;;;;;5036316;28;20061;-65
2023/01/04 11:27:17;;;;;;;1.20;0.73;;;10.00;92.40;;;;;;5035889;28;20592;-67
2023/01/04 11:30:10;;;;;;;1.33;0.70;;;9.90;92.30;;;;;;5034942;28;20036;-66
2023/01/04 11:32:56;;;;;;;1.85;0.95;;;9.90;92.70;;;;;;5035066;28;20021;-67
2023/01/04 11:35:44;;;;;;;2.67;0.98;;;9.90;92.60;;;;;;5031339;28;20025;-67
2023/01/04 11:38:21;;;;;;;1.73;0.70;;;9.90;92.30;;;;;;5033828;28;20069;-66
2023/01/04 11:40:56;;;;;;;3.67;1.00;;;9.90;92.20;;;;;;5034799;28;20033;-66
2023/01/04 11:43:23;;;;;;;2.50;0.98;;;9.80;92.60;;;;;;5036489;28;20026;-65
2023/01/04 11:46:01;;;;;;;1.08;0.73;;;9.70;93.00;;;;;;5034543;28;20068;-65
2023/01/04 11:48:34;;;;;;;2.75;0.80;;;9.70;93.10;;;;;;5036315;28;20108;-66
2023/01/04 11:51:00;;;;;;;1.80;0.80;;;9.80;92.90;;;;;;5019410;28;20292;-65
2023/01/04 11:53:36;;;;;;;2.38;0.90;;;9.70;93.00;;;;;;5015651;28;20030;-67
2023/01/04 11:56:09;;;;;;;2.92;1.00;;;9.70;93.10;;;;;;5018474;28;20034;-66
2023/01/04 11:58:36;;;;;;;3.10;0.80;;;9.70;93.30;;;;;;5036292;28;20025;-67
2023/01/04 12:01:02;;;;;;;1.60;0.80;;;9.60;93.30;;;;;;5034594;28;20037;-66
2023/01/04 12:03:39;;;;;;;2.25;0.82;;;9.60;93.40;;;;;;5036100;28;20051;-67
2023/01/04 12:06:23;;;;;;;1.45;0.80;;;9.60;93.80;;;;;;5034842;28;20032;-67
2023/01/04 12:08:50;;;;;;;;;;;9.60;93.90;;;;;;5036274;28;20092;-66
2023/01/04 12:11:27;;;;;;;2.83;1.08;;;9.70;93.70;;;;;;5024393;28;19917;-66
2023/01/04 12:13:53;;;;;;;2.13;0.98;;;9.70;93.60;;;;;;5024708;28;20029;-65
2023/01/04 12:16:52;;;;;;;2.72;1.25;;;9.70;93.70;;;;;;5035005;28;20095;-66
2023/01/04 12:19:20;;;;;;;2.45;1.15;;;9.70;93.40;;;;;;5023910;28;20331;-66
2023/01/04 12:21:50;;;;;;;2.58;0.90;;;9.70;93.80;;;;;;5014940;28;20030;-66
2023/01/04 12:24:21;;;;;;;1.63;0.88;;;9.70;93.50;;;;;;5016669;28;20034;-66
2023/01/04 12:26:49;;;;;;;3.22;0.90;;;9.80;93.60;;;;;;5033680;28;20022;-66
2023/01/04 12:29:23;;;;;;;1.83;0.90;;;9.90;93.60;;;;;;5034417;28;20091;-64
2023/01/04 12:31:50;;;;;;;2.20;0.80;;;9.90;93.60;;;;;;5035620;28;20726;-66
2023/01/04 12:34:22;;;;;;;2.58;1.08;;;10.00;93.40;;;;;;5033629;28;20029;-66
2023/01/04 12:36:59;;;;;;;2.40;0.80;;;10.00;93.50;;;;;;5034032;28;20041;-66
2023/01/04 12:39:46;;;;;;;3.53;1.98;;;10.10;93.10;;;;;;5032411;28;20037;-65
2023/01/04 12:42:16;;;;;;;2.03;1.00;;;10.30;93.10;;;;;;5022220;28;20037;-65
2023/01/04 12:44:42;;;;;;;3.65;1.05;;;10.30;92.40;;;;;;5034324;28;20088;-65
2023/01/04 12:50:12;;;;;;;2.30;0.82;;;10.20;92.80;;;;;;5020121;28;20342;-67
2023/01/04 12:52:49;;;;;;;1.95;0.93;;;10.20;93.20;;;;;;5028828;28;20066;-66
2023/01/04 12:55:32;;;;;;;1.63;0.80;;;10.20;93.20;;;;;;5032474;28;20029;-67
2023/01/04 12:57:58;;;;;;;2.27;1.03;;;10.20;93.50;;;;;;5032947;28;20053;-67
2023/01/04 13:00:49;;;;;;;1.75;0.88;;;10.10;93.30;;;;;;5027698;28;20100;-67
2023/01/04 13:03:17;;;;;;;2.15;0.90;;;10.20;93.50;;;;;;5030071;28;20393;-67
2023/01/04 13:06:01;;;;;;;1.98;0.90;;;10.10;94.00;;;;;;5032694;28;20029;-66
2023/01/04 13:08:31;;;;;;;3.05;1.65;;;10.10;94.10;;;;;;5014851;28;20030;-66
2023/01/04 13:10:58;;;;;;;3.33;1.20;;;10.00;94.30;;;;;;5018507;28;20033;-66
2023/01/04 13:13:51;;;;;;;3.13;1.00;;;10.00;94.10;;;;;;5034522;28;20021;-67
2023/01/04 13:16:46;;;;;;;2.28;0.88;;;9.90;94.30;;;;;;5031343;28;20640;-66
2023/01/04 13:19:20;;;;;;;3.78;1.00;;;9.80;94.20;;;;;;5031739;28;20493;-66
2023/01/04 13:21:48;;;;;;;1.90;0.90;;;9.70;94.40;;;;;;5030746;28;20473;-67
2023/01/04 13:24:30;;;;;;;2.92;1.00;;;9.70;94.50;;;;;;5031886;28;20041;-67
2023/01/04 13:27:06;;;;;;;3.50;1.10;;;9.60;94.80;;;;;;5033434;28;20030;-66
2023/01/04 13:29:34;;;;;;;2.15;1.00;;;9.60;95.10;;;;;;5031444;28;20044;-66
2023/01/04 13:32:04;;;;;;;2.90;0.90;;;9.60;95.10;;;;;;5032322;28;20025;-66
2023/01/04 13:34:52;;;;;;;2.75;1.27;;;9.60;95.20;;;;;;5033224;28;20369;-66
2023/01/04 13:37:26;;;;;;;2.63;1.00;;;9.60;95.10;;;;;;5031959;28;20449;-66
2023/01/04 13:40:01;;;;;;;2.03;1.10;;;9.60;95.20;;;;;;5033229;28;20030;-66
2023/01/04 13:42:33;;;;;;;3.13;1.10;;;9.60;95.30;;;;;;5033121;28;20548;-66
2023/01/04 13:45:31;;;;;;;2.20;1.08;;;9.60;95.40;;;;;;5032260;28;20340;-65
2023/01/04 13:48:03;;;;;;;1.95;1.00;;;9.60;95.40;;;;;;5014257;28;20331;-66
2023/01/04 13:50:45;;;;;;;2.78;1.00;;;9.60;95.40;;;;;;5012623;28;20030;-66
2023/01/04 13:53:23;;;;;;;5.68;1.10;;;9.60;95.60;;;;;;5018585;28;20152;-66
2023/01/04 13:55:57;;;;;;;3.55;1.00;;;9.60;95.60;;;;;;5032769;28;20035;-66
2023/01/04 13:58:26;;;;;;;2.83;1.08;;;9.60;95.50;;;;;;5027588;28;20108;-65
2023/01/04 14:01:05;;;;;;;2.90;1.20;;;9.60;95.50;;;;;;5023261;28;20044;-64
2023/01/04 14:03:50;;;;;;;2.90;1.10;;;9.50;95.80;;;;;;5032254;28;20034;-66